sensor_id;sensor_type;location;lat;lon;timestamp;P1;durP1;ratioP1;P2;durP2;ratioP2
18265;SDS011;9259;48.194;16.322;2023-10-09T00:00:32;4.20;;;1.90;;
18265;SDS011;9259;48.194;16.322;2023-10-09T00:03:17;6.00;;;1.93;;
18265;SDS011;9259;48.194;16.322;2023-10-09T00:05:49;8.07;;;2.03;;
18265;SDS011;9259;48.194;16.322;2023-10-09T00:08:19;5.17;;;1.93;;
18265;SDS011;9259;48.194;16.322;2023-10-09T00:10:52;5.20;;;1.90;;
18265;SDS011;9259;48.194;16.322;2023-10-09T00:13:21;4.47;;;1.90;;
18265;SDS011;9259;48.194;16.322;2023-10-09T00:15:57;4.13;;;2.00;;
18265;SDS011;9259;48.194;16.322;2023-10-09T00:18:40;4.37;;;2.20;;
18265;SDS011;9259;48.194;16.322;2023-10-09T00:21:15;2.80;;;1.60;;
18265;SDS011;9259;48.194;16.322;2023-10-09T00:23:46;4.77;;;2.00;;
18265;SDS011;9259;48.194;16.322;2023-10-09T00:26:18;3.83;;;1.70;;
18265;SDS011;9259;48.194;16.322;2023-10-09T00:28:46;4.13;;;2.27;;
18265;SDS011;9259;48.194;16.322;2023-10-09T00:31:17;5.50;;;2.10;;
18265;SDS011;9259;48.194;16.322;2023-10-09T00:33:53;8.63;;;2.37;;
18265;SDS011;9259;48.194;16.322;2023-10-09T00:36:29;10.70;;;2.57;;
18265;SDS011;9259;48.194;16.322;2023-10-09T00:38:58;5.03;;;2.67;;
18265;SDS011;9259;48.194;16.322;2023-10-09T00:41:38;4.50;;;2.20;;
18265;SDS011;9259;48.194;16.322;2023-10-09T00:44:07;5.20;;;2.10;;
18265;SDS011;9259;48.194;16.322;2023-10-09T00:46:40;5.10;;;2.50;;
18265;SDS011;9259;48.194;16.322;2023-10-09T00:49:08;3.70;;;2.07;;
18265;SDS011;9259;48.194;16.322;2023-10-09T00:51:38;5.57;;;2.50;;
18265;SDS011;9259;48.194;16.322;2023-10-09T00:54:21;4.97;;;2.60;;
18265;SDS011;9259;48.194;16.322;2023-10-09T00:56:54;4.13;;;2.03;;
18265;SDS011;9259;48.194;16.322;2023-10-09T00:59:33;5.93;;;2.50;;
18265;SDS011;9259;48.194;16.322;2023-10-09T01:02:04;5.83;;;2.53;;
18265;SDS011;9259;48.194;16.322;2023-10-09T01:04:32;4.43;;;2.23;;
18265;SDS011;9259;48.194;16.322;2023-10-09T01:07:07;9.57;;;2.03;;
18265;SDS011;9259;48.194;16.322;2023-10-09T01:09:41;7.17;;;2.23;;
18265;SDS011;9259;48.194;16.322;2023-10-09T01:12:10;3.33;;;1.87;;
18265;SDS011;9259;48.194;16.322;2023-10-09T01:14:43;6.23;;;1.93;;
18265;SDS011;9259;48.194;16.322;2023-10-09T01:17:12;5.90;;;2.33;;
18265;SDS011;9259;48.194;16.322;2023-10-09T01:19:54;5.37;;;2.00;;
18265;SDS011;9259;48.194;16.322;2023-10-09T01:22:25;4.77;;;2.07;;
18265;SDS011;9259;48.194;16.322;2023-10-09T01:24:54;3.47;;;1.83;;
18265;SDS011;9259;48.194;16.322;2023-10-09T01:27:22;5.70;;;2.40;;
18265;SDS011;9259;48.194;16.322;2023-10-09T01:29:57;3.30;;;1.80;;
18265;SDS011;9259;48.194;16.322;2023-10-09T01:32:26;6.80;;;2.70;;
18265;SDS011;9259;48.194;16.322;2023-10-09T01:34:55;3.60;;;2.07;;
18265;SDS011;9259;48.194;16.322;2023-10-09T01:37:23;5.67;;;2.10;;
18265;SDS011;9259;48.194;16.322;2023-10-09T01:39:56;5.37;;;2.47;;
18265;SDS011;9259;48.194;16.322;2023-10-09T01:42:45;5.83;;;2.20;;
18265;SDS011;9259;48.194;16.322;2023-10-09T01:45:13;5.67;;;2.80;;
18265;SDS011;9259;48.194;16.322;2023-10-09T01:47:52;4.43;;;2.30;;
18265;SDS011;9259;48.194;16.322;2023-10-09T01:50:21;7.00;;;2.43;;
18265;SDS011;9259;48.194;16.322;2023-10-09T01:52:50;4.30;;;2.13;;
18265;SDS011;9259;48.194;16.322;2023-10-09T01:55:20;4.03;;;1.87;;
18265;SDS011;9259;48.194;16.322;2023-10-09T01:57:58;6.07;;;2.13;;
18265;SDS011;9259;48.194;16.322;2023-10-09T02:00:31;5.77;;;2.73;;
18265;SDS011;9259;48.194;16.322;2023-10-09T02:03:07;5.47;;;2.60;;
18265;SDS011;9259;48.194;16.322;2023-10-09T02:05:41;3.83;;;2.20;;
18265;SDS011;9259;48.194;16.322;2023-10-09T02:08:09;4.53;;;2.23;;
18265;SDS011;9259;48.194;16.322;2023-10-09T02:10:39;7.13;;;2.60;;
18265;SDS011;9259;48.194;16.322;2023-10-09T02:13:13;4.03;;;1.97;;
18265;SDS011;9259;48.194;16.322;2023-10-09T02:15:43;4.03;;;2.10;;
18265;SDS011;9259;48.194;16.322;2023-10-09T02:18:24;4.10;;;2.07;;
18265;SDS011;9259;48.194;16.322;2023-10-09T02:21:05;5.07;;;2.23;;
18265;SDS011;9259;48.194;16.322;2023-10-09T02:23:40;4.57;;;2.27;;
18265;SDS011;9259;48.194;16.322;2023-10-09T02:26:14;5.50;;;2.37;;
18265;SDS011;9259;48.194;16.322;2023-10-09T02:28:45;7.27;;;2.30;;
18265;SDS011;9259;48.194;16.322;2023-10-09T02:31:19;5.10;;;2.60;;
18265;SDS011;9259;48.194;16.322;2023-10-09T02:33:48;4.67;;;1.90;;
18265;SDS011;9259;48.194;16.322;2023-10-09T02:36:19;2.87;;;1.63;;
18265;SDS011;9259;48.194;16.322;2023-10-09T02:38:47;5.30;;;2.13;;
18265;SDS011;9259;48.194;16.322;2023-10-09T02:41:20;5.80;;;1.83;;
18265;SDS011;9259;48.194;16.322;2023-10-09T02:43:54;5.47;;;1.90;;
18265;SDS011;9259;48.194;16.322;2023-10-09T02:46:24;4.73;;;2.00;;
18265;SDS011;9259;48.194;16.322;2023-10-09T02:49:01;5.57;;;1.87;;
18265;SDS011;9259;48.194;16.322;2023-10-09T02:51:32;5.57;;;2.00;;
18265;SDS011;9259;48.194;16.322;2023-10-09T02:54:06;3.60;;;1.87;;
18265;SDS011;9259;48.194;16.322;2023-10-09T02:56:45;8.63;;;2.33;;
18265;SDS011;9259;48.194;16.322;2023-10-09T02:59:20;4.47;;;1.77;;
18265;SDS011;9259;48.194;16.322;2023-10-09T03:01:48;5.70;;;1.70;;
18265;SDS011;9259;48.194;16.322;2023-10-09T03:04:18;5.67;;;1.80;;
18265;SDS011;9259;48.194;16.322;2023-10-09T03:06:49;4.33;;;2.10;;
18265;SDS011;9259;48.194;16.322;2023-10-09T03:09:17;6.30;;;1.87;;
18265;SDS011;9259;48.194;16.322;2023-10-09T03:11:53;6.80;;;2.07;;
18265;SDS011;9259;48.194;16.322;2023-10-09T03:14:28;9.93;;;2.17;;
18265;SDS011;9259;48.194;16.322;2023-10-09T03:16:56;6.50;;;2.30;;
18265;SDS011;9259;48.194;16.322;2023-10-09T03:19:25;5.67;;;1.83;;
18265;SDS011;9259;48.194;16.322;2023-10-09T03:21:54;5.93;;;2.10;;
18265;SDS011;9259;48.194;16.322;2023-10-09T03:24:23;7.13;;;2.23;;
18265;SDS011;9259;48.194;16.322;2023-10-09T03:26:54;6.90;;;1.90;;
18265;SDS011;9259;48.194;16.322;2023-10-09T03:29:22;7.80;;;2.00;;
18265;SDS011;9259;48.194;16.322;2023-10-09T03:31:50;5.80;;;2.37;;
18265;SDS011;9259;48.194;16.322;2023-10-09T03:34:19;4.10;;;2.23;;
18265;SDS011;9259;48.194;16.322;2023-10-09T03:36:47;12.07;;;2.63;;
18265;SDS011;9259;48.194;16.322;2023-10-09T03:39:17;6.80;;;2.40;;
18265;SDS011;9259;48.194;16.322;2023-10-09T03:41:51;7.33;;;2.30;;
18265;SDS011;9259;48.194;16.322;2023-10-09T03:44:24;4.97;;;2.10;;
18265;SDS011;9259;48.194;16.322;2023-10-09T03:46:54;8.93;;;2.40;;
18265;SDS011;9259;48.194;16.322;2023-10-09T03:49:22;9.57;;;2.80;;
18265;SDS011;9259;48.194;16.322;2023-10-09T03:51:51;5.80;;;2.13;;
18265;SDS011;9259;48.194;16.322;2023-10-09T03:54:21;4.60;;;2.30;;
18265;SDS011;9259;48.194;16.322;2023-10-09T03:56:50;4.03;;;2.50;;
18265;SDS011;9259;48.194;16.322;2023-10-09T03:59:21;6.67;;;2.73;;
18265;SDS011;9259;48.194;16.322;2023-10-09T04:01:52;6.43;;;2.53;;
18265;SDS011;9259;48.194;16.322;2023-10-09T04:04:20;6.30;;;2.90;;
18265;SDS011;9259;48.194;16.322;2023-10-09T04:06:48;7.27;;;3.03;;
18265;SDS011;9259;48.194;16.322;2023-10-09T04:09:17;8.30;;;2.80;;
18265;SDS011;9259;48.194;16.322;2023-10-09T04:12:05;6.63;;;3.20;;
18265;SDS011;9259;48.194;16.322;2023-10-09T04:14:47;5.00;;;2.33;;
18265;SDS011;9259;48.194;16.322;2023-10-09T04:17:20;6.23;;;2.90;;
18265;SDS011;9259;48.194;16.322;2023-10-09T04:20:00;7.13;;;2.90;;
18265;SDS011;9259;48.194;16.322;2023-10-09T04:23:09;5.43;;;2.47;;
18265;SDS011;9259;48.194;16.322;2023-10-09T04:25:41;5.40;;;2.73;;
18265;SDS011;9259;48.194;16.322;2023-10-09T04:28:11;7.00;;;2.67;;
18265;SDS011;9259;48.194;16.322;2023-10-09T04:30:46;8.73;;;3.20;;
18265;SDS011;9259;48.194;16.322;2023-10-09T04:33:19;7.10;;;3.00;;
18265;SDS011;9259;48.194;16.322;2023-10-09T04:36:07;5.83;;;2.83;;
18265;SDS011;9259;48.194;16.322;2023-10-09T04:38:42;6.50;;;3.00;;
18265;SDS011;9259;48.194;16.322;2023-10-09T04:41:21;4.63;;;2.60;;
18265;SDS011;9259;48.194;16.322;2023-10-09T04:43:58;5.30;;;2.70;;
18265;SDS011;9259;48.194;16.322;2023-10-09T04:46:45;6.97;;;2.90;;
18265;SDS011;9259;48.194;16.322;2023-10-09T04:49:44;6.30;;;3.23;;
18265;SDS011;9259;48.194;16.322;2023-10-09T04:52:18;5.10;;;2.80;;
18265;SDS011;9259;48.194;16.322;2023-10-09T04:55:07;6.63;;;2.67;;
18265;SDS011;9259;48.194;16.322;2023-10-09T04:57:45;10.70;;;3.13;;
18265;SDS011;9259;48.194;16.322;2023-10-09T05:00:26;5.13;;;2.67;;
18265;SDS011;9259;48.194;16.322;2023-10-09T05:03:18;9.50;;;3.03;;
18265;SDS011;9259;48.194;16.322;2023-10-09T05:05:54;5.90;;;2.83;;
18265;SDS011;9259;48.194;16.322;2023-10-09T05:08:46;11.20;;;2.60;;
18265;SDS011;9259;48.194;16.322;2023-10-09T05:11:14;6.93;;;2.90;;
18265;SDS011;9259;48.194;16.322;2023-10-09T05:14:00;7.97;;;2.90;;
18265;SDS011;9259;48.194;16.322;2023-10-09T05:16:37;8.53;;;3.17;;
18265;SDS011;9259;48.194;16.322;2023-10-09T05:19:21;5.10;;;2.57;;
18265;SDS011;9259;48.194;16.322;2023-10-09T05:22:08;6.67;;;3.13;;
18265;SDS011;9259;48.194;16.322;2023-10-09T05:24:55;5.73;;;2.93;;
18265;SDS011;9259;48.194;16.322;2023-10-09T05:27:26;7.27;;;2.70;;
18265;SDS011;9259;48.194;16.322;2023-10-09T05:30:20;7.50;;;3.20;;
18265;SDS011;9259;48.194;16.322;2023-10-09T05:32:52;9.73;;;3.30;;
18265;SDS011;9259;48.194;16.322;2023-10-09T05:35:25;11.67;;;3.27;;
18265;SDS011;9259;48.194;16.322;2023-10-09T05:38:28;8.60;;;3.80;;
18265;SDS011;9259;48.194;16.322;2023-10-09T05:40:56;8.30;;;3.17;;
18265;SDS011;9259;48.194;16.322;2023-10-09T05:43:44;7.93;;;3.10;;
18265;SDS011;9259;48.194;16.322;2023-10-09T05:46:30;6.53;;;2.63;;
18265;SDS011;9259;48.194;16.322;2023-10-09T05:49:02;11.07;;;3.67;;
18265;SDS011;9259;48.194;16.322;2023-10-09T05:51:46;7.73;;;2.70;;
18265;SDS011;9259;48.194;16.322;2023-10-09T05:54:40;7.00;;;3.23;;
18265;SDS011;9259;48.194;16.322;2023-10-09T05:57:25;11.07;;;3.10;;
18265;SDS011;9259;48.194;16.322;2023-10-09T06:00:14;6.13;;;2.53;;
18265;SDS011;9259;48.194;16.322;2023-10-09T06:02:59;4.30;;;2.57;;
18265;SDS011;9259;48.194;16.322;2023-10-09T06:05:45;8.40;;;3.27;;
18265;SDS011;9259;48.194;16.322;2023-10-09T06:08:29;6.53;;;2.70;;
18265;SDS011;9259;48.194;16.322;2023-10-09T06:11:11;6.77;;;2.60;;
18265;SDS011;9259;48.194;16.322;2023-10-09T06:13:54;6.87;;;2.83;;
18265;SDS011;9259;48.194;16.322;2023-10-09T06:16:30;6.63;;;2.93;;
18265;SDS011;9259;48.194;16.322;2023-10-09T06:19:07;7.73;;;3.10;;
18265;SDS011;9259;48.194;16.322;2023-10-09T06:21:37;7.27;;;2.70;;
18265;SDS011;9259;48.194;16.322;2023-10-09T06:24:08;9.10;;;2.77;;
18265;SDS011;9259;48.194;16.322;2023-10-09T06:26:41;7.23;;;2.63;;
18265;SDS011;9259;48.194;16.322;2023-10-09T06:29:33;5.57;;;2.33;;
18265;SDS011;9259;48.194;16.322;2023-10-09T06:32:02;6.83;;;3.07;;
18265;SDS011;9259;48.194;16.322;2023-10-09T06:34:47;6.57;;;2.20;;
18265;SDS011;9259;48.194;16.322;2023-10-09T06:37:18;5.40;;;2.30;;
18265;SDS011;9259;48.194;16.322;2023-10-09T06:40:01;7.33;;;2.10;;
18265;SDS011;9259;48.194;16.322;2023-10-09T06:42:52;5.53;;;2.03;;
18265;SDS011;9259;48.194;16.322;2023-10-09T06:45:20;5.03;;;2.23;;
18265;SDS011;9259;48.194;16.322;2023-10-09T06:48:09;3.37;;;2.00;;
18265;SDS011;9259;48.194;16.322;2023-10-09T06:50:51;5.07;;;2.20;;
18265;SDS011;9259;48.194;16.322;2023-10-09T06:53:30;6.60;;;2.10;;
18265;SDS011;9259;48.194;16.322;2023-10-09T06:56:16;4.97;;;2.10;;
18265;SDS011;9259;48.194;16.322;2023-10-09T06:58:55;4.87;;;2.50;;
18265;SDS011;9259;48.194;16.322;2023-10-09T07:01:23;5.77;;;2.80;;
18265;SDS011;9259;48.194;16.322;2023-10-09T07:04:05;5.90;;;2.03;;
18265;SDS011;9259;48.194;16.322;2023-10-09T07:06:44;6.17;;;2.17;;
18265;SDS011;9259;48.194;16.322;2023-10-09T07:09:16;4.37;;;2.10;;
18265;SDS011;9259;48.194;16.322;2023-10-09T07:11:48;6.23;;;2.57;;
18265;SDS011;9259;48.194;16.322;2023-10-09T07:14:35;6.47;;;2.30;;
18265;SDS011;9259;48.194;16.322;2023-10-09T07:17:20;6.20;;;2.10;;
18265;SDS011;9259;48.194;16.322;2023-10-09T07:19:49;6.97;;;2.20;;
18265;SDS011;9259;48.194;16.322;2023-10-09T07:22:37;3.90;;;2.00;;
18265;SDS011;9259;48.194;16.322;2023-10-09T07:25:22;5.63;;;2.10;;
18265;SDS011;9259;48.194;16.322;2023-10-09T07:28:22;4.53;;;2.07;;
18265;SDS011;9259;48.194;16.322;2023-10-09T07:31:02;5.40;;;1.97;;
18265;SDS011;9259;48.194;16.322;2023-10-09T07:33:34;4.17;;;2.00;;
18265;SDS011;9259;48.194;16.322;2023-10-09T07:36:16;3.13;;;1.60;;
18265;SDS011;9259;48.194;16.322;2023-10-09T07:38:55;3.95;;;1.55;;
18265;SDS011;9259;48.194;16.322;2023-10-09T07:41:32;4.68;;;1.77;;
18265;SDS011;9259;48.194;16.322;2023-10-09T07:44:11;5.57;;;1.90;;
18265;SDS011;9259;48.194;16.322;2023-10-09T07:46:56;7.28;;;2.00;;
18265;SDS011;9259;48.194;16.322;2023-10-09T07:49:38;4.28;;;1.65;;
18265;SDS011;9259;48.194;16.322;2023-10-09T07:52:08;7.00;;;2.08;;
18265;SDS011;9259;48.194;16.322;2023-10-09T07:54:36;4.40;;;1.98;;
18265;SDS011;9259;48.194;16.322;2023-10-09T07:57:16;4.32;;;1.80;;
18265;SDS011;9259;48.194;16.322;2023-10-09T07:59:52;3.90;;;1.80;;
18265;SDS011;9259;48.194;16.322;2023-10-09T08:02:38;5.80;;;1.92;;
18265;SDS011;9259;48.194;16.322;2023-10-09T08:05:07;5.13;;;2.05;;
18265;SDS011;9259;48.194;16.322;2023-10-09T08:07:45;6.35;;;2.08;;
18265;SDS011;9259;48.194;16.322;2023-10-09T08:10:24;6.07;;;1.90;;
18265;SDS011;9259;48.194;16.322;2023-10-09T08:13:24;10.57;;;2.33;;
18265;SDS011;9259;48.194;16.322;2023-10-09T08:16:23;4.43;;;1.92;;
18265;SDS011;9259;48.194;16.322;2023-10-09T08:19:02;6.50;;;1.83;;
18265;SDS011;9259;48.194;16.322;2023-10-09T08:21:52;5.55;;;1.83;;
18265;SDS011;9259;48.194;16.322;2023-10-09T08:24:43;5.22;;;2.08;;
18265;SDS011;9259;48.194;16.322;2023-10-09T08:27:18;5.55;;;2.20;;
18265;SDS011;9259;48.194;16.322;2023-10-09T08:30:12;5.68;;;2.10;;
18265;SDS011;9259;48.194;16.322;2023-10-09T08:32:55;5.15;;;2.22;;
18265;SDS011;9259;48.194;16.322;2023-10-09T08:35:29;7.18;;;2.10;;
18265;SDS011;9259;48.194;16.322;2023-10-09T08:38:00;4.95;;;2.00;;
18265;SDS011;9259;48.194;16.322;2023-10-09T08:40:33;7.78;;;2.25;;
18265;SDS011;9259;48.194;16.322;2023-10-09T08:43:08;6.50;;;2.33;;
18265;SDS011;9259;48.194;16.322;2023-10-09T08:45:37;8.90;;;2.33;;
18265;SDS011;9259;48.194;16.322;2023-10-09T08:48:08;6.90;;;2.08;;
18265;SDS011;9259;48.194;16.322;2023-10-09T08:50:41;6.53;;;2.15;;
18265;SDS011;9259;48.194;16.322;2023-10-09T08:53:10;6.43;;;2.70;;
18265;SDS011;9259;48.194;16.322;2023-10-09T08:55:39;6.45;;;1.95;;
18265;SDS011;9259;48.194;16.322;2023-10-09T08:58:07;6.97;;;2.20;;
18265;SDS011;9259;48.194;16.322;2023-10-09T09:00:47;9.25;;;2.03;;
18265;SDS011;9259;48.194;16.322;2023-10-09T09:03:17;9.90;;;2.08;;
18265;SDS011;9259;48.194;16.322;2023-10-09T09:05:47;7.10;;;2.92;;
18265;SDS011;9259;48.194;16.322;2023-10-09T09:08:27;8.00;;;2.45;;
18265;SDS011;9259;48.194;16.322;2023-10-09T09:10:59;4.82;;;2.15;;
18265;SDS011;9259;48.194;16.322;2023-10-09T09:13:38;7.25;;;2.75;;
18265;SDS011;9259;48.194;16.322;2023-10-09T09:16:14;5.70;;;2.53;;
18265;SDS011;9259;48.194;16.322;2023-10-09T09:18:51;7.75;;;2.40;;
18265;SDS011;9259;48.194;16.322;2023-10-09T09:21:26;7.93;;;2.10;;
18265;SDS011;9259;48.194;16.322;2023-10-09T09:23:55;8.00;;;2.53;;
18265;SDS011;9259;48.194;16.322;2023-10-09T09:26:33;6.28;;;2.13;;
18265;SDS011;9259;48.194;16.322;2023-10-09T09:29:04;5.70;;;2.20;;
18265;SDS011;9259;48.194;16.322;2023-10-09T09:31:33;9.43;;;2.50;;
18265;SDS011;9259;48.194;16.322;2023-10-09T09:34:05;5.82;;;2.03;;
18265;SDS011;9259;48.194;16.322;2023-10-09T09:36:53;7.18;;;2.25;;
18265;SDS011;9259;48.194;16.322;2023-10-09T09:39:23;6.72;;;1.80;;
18265;SDS011;9259;48.194;16.322;2023-10-09T09:41:56;8.30;;;2.00;;
18265;SDS011;9259;48.194;16.322;2023-10-09T09:44:30;8.88;;;2.42;;
18265;SDS011;9259;48.194;16.322;2023-10-09T09:46:59;8.52;;;2.50;;
18265;SDS011;9259;48.194;16.322;2023-10-09T09:49:31;8.77;;;2.33;;
18265;SDS011;9259;48.194;16.322;2023-10-09T09:52:00;6.32;;;2.10;;
18265;SDS011;9259;48.194;16.322;2023-10-09T09:54:36;5.53;;;1.90;;
18265;SDS011;9259;48.194;16.322;2023-10-09T09:57:05;4.10;;;1.77;;
18265;SDS011;9259;48.194;16.322;2023-10-09T09:59:39;6.65;;;1.88;;
18265;SDS011;9259;48.194;16.322;2023-10-09T10:02:18;10.57;;;2.28;;
18265;SDS011;9259;48.194;16.322;2023-10-09T10:04:51;7.07;;;2.42;;
18265;SDS011;9259;48.194;16.322;2023-10-09T10:07:22;11.77;;;2.75;;
18265;SDS011;9259;48.194;16.322;2023-10-09T10:09:54;10.25;;;2.47;;
18265;SDS011;9259;48.194;16.322;2023-10-09T10:18:24;12.70;;;3.25;;
18265;SDS011;9259;48.194;16.322;2023-10-09T10:21:12;11.07;;;2.85;;
18265;SDS011;9259;48.194;16.322;2023-10-09T10:23:46;11.55;;;2.38;;
18265;SDS011;9259;48.194;16.322;2023-10-09T10:26:18;10.60;;;2.83;;
18265;SDS011;9259;48.194;16.322;2023-10-09T10:31:52;11.80;;;2.80;;
18265;SDS011;9259;48.194;16.322;2023-10-09T10:34:22;12.23;;;2.75;;
18265;SDS011;9259;48.194;16.322;2023-10-09T10:36:52;16.13;;;3.88;;
18265;SDS011;9259;48.194;16.322;2023-10-09T10:39:26;15.05;;;3.13;;
18265;SDS011;9259;48.194;16.322;2023-10-09T10:42:20;12.65;;;2.97;;
18265;SDS011;9259;48.194;16.322;2023-10-09T10:45:00;10.50;;;2.53;;
18265;SDS011;9259;48.194;16.322;2023-10-09T10:47:29;5.57;;;2.22;;
18265;SDS011;9259;48.194;16.322;2023-10-09T10:50:00;9.77;;;3.08;;
18265;SDS011;9259;48.194;16.322;2023-10-09T10:53:07;8.77;;;2.92;;
18265;SDS011;9259;48.194;16.322;2023-10-09T10:55:39;9.65;;;2.53;;
18265;SDS011;9259;48.194;16.322;2023-10-09T10:58:23;10.30;;;3.20;;
18265;SDS011;9259;48.194;16.322;2023-10-09T11:01:00;8.23;;;2.50;;
18265;SDS011;9259;48.194;16.322;2023-10-09T11:03:40;10.88;;;2.97;;
18265;SDS011;9259;48.194;16.322;2023-10-09T11:06:24;9.93;;;3.22;;
18265;SDS011;9259;48.194;16.322;2023-10-09T11:09:01;15.88;;;2.50;;
18265;SDS011;9259;48.194;16.322;2023-10-09T11:11:36;10.90;;;3.35;;
18265;SDS011;9259;48.194;16.322;2023-10-09T11:14:14;12.75;;;3.05;;
18265;SDS011;9259;48.194;16.322;2023-10-09T11:16:43;13.35;;;3.25;;
18265;SDS011;9259;48.194;16.322;2023-10-09T11:19:13;9.50;;;2.90;;
18265;SDS011;9259;48.194;16.322;2023-10-09T11:22:05;12.35;;;3.10;;
18265;SDS011;9259;48.194;16.322;2023-10-09T11:24:56;10.98;;;3.17;;
18265;SDS011;9259;48.194;16.322;2023-10-09T11:27:40;11.00;;;3.70;;
18265;SDS011;9259;48.194;16.322;2023-10-09T11:30:17;11.18;;;3.20;;
18265;SDS011;9259;48.194;16.322;2023-10-09T11:33:02;11.85;;;2.75;;
18265;SDS011;9259;48.194;16.322;2023-10-09T11:35:31;12.35;;;2.80;;
18265;SDS011;9259;48.194;16.322;2023-10-09T11:38:00;8.98;;;3.05;;
18265;SDS011;9259;48.194;16.322;2023-10-09T11:40:46;14.88;;;3.75;;
18265;SDS011;9259;48.194;16.322;2023-10-09T11:43:44;12.32;;;3.47;;
18265;SDS011;9259;48.194;16.322;2023-10-09T11:46:19;11.32;;;3.40;;
18265;SDS011;9259;48.194;16.322;2023-10-09T11:49:14;8.63;;;2.92;;
18265;SDS011;9259;48.194;16.322;2023-10-09T11:52:04;12.48;;;3.47;;
18265;SDS011;9259;48.194;16.322;2023-10-09T11:54:51;13.90;;;3.75;;
18265;SDS011;9259;48.194;16.322;2023-10-09T11:57:23;11.98;;;3.83;;
18265;SDS011;9259;48.194;16.322;2023-10-09T11:59:56;9.95;;;3.53;;
18265;SDS011;9259;48.194;16.322;2023-10-09T12:02:27;10.35;;;3.80;;
18265;SDS011;9259;48.194;16.322;2023-10-09T12:04:55;13.80;;;4.25;;
18265;SDS011;9259;48.194;16.322;2023-10-09T12:07:24;13.50;;;3.95;;
18265;SDS011;9259;48.194;16.322;2023-10-09T12:09:53;12.32;;;3.60;;
18265;SDS011;9259;48.194;16.322;2023-10-09T12:12:22;14.10;;;3.78;;
18265;SDS011;9259;48.194;16.322;2023-10-09T12:14:52;11.23;;;3.70;;
18265;SDS011;9259;48.194;16.322;2023-10-09T12:17:20;11.73;;;3.95;;
18265;SDS011;9259;48.194;16.322;2023-10-09T12:19:53;10.10;;;4.07;;
18265;SDS011;9259;48.194;16.322;2023-10-09T12:22:21;11.45;;;3.88;;
18265;SDS011;9259;48.194;16.322;2023-10-09T12:24:52;11.18;;;4.07;;
18265;SDS011;9259;48.194;16.322;2023-10-09T12:27:22;14.98;;;4.18;;
18265;SDS011;9259;48.194;16.322;2023-10-09T12:29:50;14.63;;;3.17;;
18265;SDS011;9259;48.194;16.322;2023-10-09T12:32:18;12.30;;;3.67;;
18265;SDS011;9259;48.194;16.322;2023-10-09T12:34:46;9.20;;;3.60;;
18265;SDS011;9259;48.194;16.322;2023-10-09T12:37:17;13.40;;;3.80;;
18265;SDS011;9259;48.194;16.322;2023-10-09T12:39:46;14.10;;;4.13;;
18265;SDS011;9259;48.194;16.322;2023-10-09T12:42:15;17.33;;;4.20;;
18265;SDS011;9259;48.194;16.322;2023-10-09T12:44:44;12.95;;;4.30;;
18265;SDS011;9259;48.194;16.322;2023-10-09T12:47:12;13.95;;;3.67;;
18265;SDS011;9259;48.194;16.322;2023-10-09T12:49:40;11.05;;;4.03;;
18265;SDS011;9259;48.194;16.322;2023-10-09T12:52:08;14.93;;;5.15;;
18265;SDS011;9259;48.194;16.322;2023-10-09T12:54:43;15.98;;;4.55;;
18265;SDS011;9259;48.194;16.322;2023-10-09T12:57:12;13.38;;;4.13;;
18265;SDS011;9259;48.194;16.322;2023-10-09T12:59:43;11.80;;;4.13;;
18265;SDS011;9259;48.194;16.322;2023-10-09T13:02:14;16.17;;;4.43;;
18265;SDS011;9259;48.194;16.322;2023-10-09T13:04:54;13.10;;;4.47;;
18265;SDS011;9259;48.194;16.322;2023-10-09T13:07:22;13.85;;;4.75;;
18265;SDS011;9259;48.194;16.322;2023-10-09T13:09:51;13.55;;;4.47;;
18265;SDS011;9259;48.194;16.322;2023-10-09T13:12:33;11.40;;;4.35;;
18265;SDS011;9259;48.194;16.322;2023-10-09T13:15:04;14.73;;;5.30;;
18265;SDS011;9259;48.194;16.322;2023-10-09T13:17:35;14.50;;;4.63;;
18265;SDS011;9259;48.194;16.322;2023-10-09T13:20:03;14.48;;;5.10;;
18265;SDS011;9259;48.194;16.322;2023-10-09T13:22:38;13.30;;;4.90;;
18265;SDS011;9259;48.194;16.322;2023-10-09T13:25:08;12.07;;;4.90;;
18265;SDS011;9259;48.194;16.322;2023-10-09T13:27:41;15.38;;;5.13;;
18265;SDS011;9259;48.194;16.322;2023-10-09T13:30:16;14.00;;;5.32;;
18265;SDS011;9259;48.194;16.322;2023-10-09T13:32:49;13.35;;;4.90;;
18265;SDS011;9259;48.194;16.322;2023-10-09T13:35:17;14.73;;;5.30;;
18265;SDS011;9259;48.194;16.322;2023-10-09T13:37:45;17.30;;;5.95;;
18265;SDS011;9259;48.194;16.322;2023-10-09T13:40:21;16.60;;;6.10;;
18265;SDS011;9259;48.194;16.322;2023-10-09T13:42:54;13.15;;;5.50;;
18265;SDS011;9259;48.194;16.322;2023-10-09T13:45:25;12.55;;;5.70;;
18265;SDS011;9259;48.194;16.322;2023-10-09T13:47:54;21.33;;;6.32;;
18265;SDS011;9259;48.194;16.322;2023-10-09T13:50:23;19.10;;;6.32;;
18265;SDS011;9259;48.194;16.322;2023-10-09T13:52:55;18.50;;;6.70;;
18265;SDS011;9259;48.194;16.322;2023-10-09T13:55:24;22.60;;;7.10;;
18265;SDS011;9259;48.194;16.322;2023-10-09T13:57:57;22.35;;;7.72;;
18265;SDS011;9259;48.194;16.322;2023-10-09T14:00:25;20.98;;;7.38;;
18265;SDS011;9259;48.194;16.322;2023-10-09T14:03:08;25.70;;;8.07;;
18265;SDS011;9259;48.194;16.322;2023-10-09T14:05:39;25.58;;;7.07;;
18265;SDS011;9259;48.194;16.322;2023-10-09T14:08:19;24.02;;;7.47;;
18265;SDS011;9259;48.194;16.322;2023-10-09T14:10:50;26.40;;;7.13;;
18265;SDS011;9259;48.194;16.322;2023-10-09T14:13:18;22.83;;;7.13;;
18265;SDS011;9259;48.194;16.322;2023-10-09T14:15:52;18.48;;;6.72;;
18265;SDS011;9259;48.194;16.322;2023-10-09T14:18:21;28.75;;;8.43;;
18265;SDS011;9259;48.194;16.322;2023-10-09T14:20:50;27.95;;;8.65;;
18265;SDS011;9259;48.194;16.322;2023-10-09T14:23:22;18.67;;;6.55;;
18265;SDS011;9259;48.194;16.322;2023-10-09T14:25:58;19.95;;;6.20;;
18265;SDS011;9259;48.194;16.322;2023-10-09T14:28:28;19.05;;;6.63;;
18265;SDS011;9259;48.194;16.322;2023-10-09T14:30:56;17.38;;;7.45;;
18265;SDS011;9259;48.194;16.322;2023-10-09T14:33:26;19.02;;;6.82;;
18265;SDS011;9259;48.194;16.322;2023-10-09T14:36:01;25.63;;;6.72;;
18265;SDS011;9259;48.194;16.322;2023-10-09T14:38:31;19.08;;;6.70;;
18265;SDS011;9259;48.194;16.322;2023-10-09T14:41:07;21.70;;;5.85;;
18265;SDS011;9259;48.194;16.322;2023-10-09T14:43:37;18.35;;;5.80;;
18265;SDS011;9259;48.194;16.322;2023-10-09T14:46:05;14.43;;;6.15;;
18265;SDS011;9259;48.194;16.322;2023-10-09T14:48:37;16.55;;;5.68;;
18265;SDS011;9259;48.194;16.322;2023-10-09T14:51:05;17.30;;;5.82;;
18265;SDS011;9259;48.194;16.322;2023-10-09T14:53:36;19.85;;;6.28;;
18265;SDS011;9259;48.194;16.322;2023-10-09T14:56:04;18.77;;;6.03;;
18265;SDS011;9259;48.194;16.322;2023-10-09T14:58:35;15.93;;;5.60;;
18265;SDS011;9259;48.194;16.322;2023-10-09T15:01:08;19.08;;;6.38;;
18265;SDS011;9259;48.194;16.322;2023-10-09T15:03:41;22.15;;;6.55;;
18265;SDS011;9259;48.194;16.322;2023-10-09T15:06:09;18.55;;;7.18;;
18265;SDS011;9259;48.194;16.322;2023-10-09T15:08:39;18.25;;;6.90;;
18265;SDS011;9259;48.194;16.322;2023-10-09T15:11:08;20.40;;;6.63;;
18265;SDS011;9259;48.194;16.322;2023-10-09T15:13:37;20.00;;;7.35;;
18265;SDS011;9259;48.194;16.322;2023-10-09T15:16:05;18.05;;;7.25;;
18265;SDS011;9259;48.194;16.322;2023-10-09T15:18:36;20.87;;;6.87;;
18265;SDS011;9259;48.194;16.322;2023-10-09T15:21:04;20.52;;;7.63;;
18265;SDS011;9259;48.194;16.322;2023-10-09T15:23:34;21.02;;;6.65;;
18265;SDS011;9259;48.194;16.322;2023-10-09T15:26:02;16.63;;;6.05;;
18265;SDS011;9259;48.194;16.322;2023-10-09T15:28:33;20.08;;;7.00;;
18265;SDS011;9259;48.194;16.322;2023-10-09T15:31:01;22.27;;;7.72;;
18265;SDS011;9259;48.194;16.322;2023-10-09T15:33:36;16.73;;;6.55;;
18265;SDS011;9259;48.194;16.322;2023-10-09T15:36:09;25.83;;;7.28;;
18265;SDS011;9259;48.194;16.322;2023-10-09T15:38:43;20.20;;;7.00;;